sensor_id;sensor_type;location;lat;lon;timestamp;P1;durP1;ratioP1;P2;durP2;ratioP2
20287;SDS011;10303;51.960;8.372;2022-12-05T00:01:22;16.50;;;7.67;;
20287;SDS011;10303;51.960;8.372;2022-12-05T00:04:00;21.50;;;8.43;;
20287;SDS011;10303;51.960;8.372;2022-12-05T00:06:33;17.40;;;8.27;;
20287;SDS011;10303;51.960;8.372;2022-12-05T00:09:00;15.00;;;6.97;;
20287;SDS011;10303;51.960;8.372;2022-12-05T00:11:29;16.03;;;7.33;;
20287;SDS011;10303;51.960;8.372;2022-12-05T00:13:58;13.93;;;6.67;;
20287;SDS011;10303;51.960;8.372;2022-12-05T00:16:27;14.97;;;6.63;;
20287;SDS011;10303;51.960;8.372;2022-12-05T00:18:57;13.07;;;6.50;;
20287;SDS011;10303;51.960;8.372;2022-12-05T00:21:25;12.80;;;6.17;;
20287;SDS011;10303;51.960;8.372;2022-12-05T00:23:55;14.13;;;7.40;;
20287;SDS011;10303;51.960;8.372;2022-12-05T00:26:22;14.40;;;7.57;;
20287;SDS011;10303;51.960;8.372;2022-12-05T00:28:49;14.07;;;7.13;;
20287;SDS011;10303;51.960;8.372;2022-12-05T00:31:17;12.93;;;7.07;;
20287;SDS011;10303;51.960;8.372;2022-12-05T00:33:46;13.87;;;7.00;;
20287;SDS011;10303;51.960;8.372;2022-12-05T00:36:15;18.37;;;7.90;;
20287;SDS011;10303;51.960;8.372;2022-12-05T00:38:48;17.80;;;7.40;;
20287;SDS011;10303;51.960;8.372;2022-12-05T00:41:16;12.20;;;7.03;;
20287;SDS011;10303;51.960;8.372;2022-12-05T00:43:48;11.33;;;6.00;;
20287;SDS011;10303;51.960;8.372;2022-12-05T00:46:16;12.40;;;6.47;;
20287;SDS011;10303;51.960;8.372;2022-12-05T00:48:46;13.40;;;6.40;;
20287;SDS011;10303;51.960;8.372;2022-12-05T00:51:16;11.63;;;6.37;;
20287;SDS011;10303;51.960;8.372;2022-12-05T00:53:54;12.03;;;6.70;;
20287;SDS011;10303;51.960;8.372;2022-12-05T00:56:25;16.60;;;6.63;;
20287;SDS011;10303;51.960;8.372;2022-12-05T00:58:53;13.90;;;6.53;;
20287;SDS011;10303;51.960;8.372;2022-12-05T01:01:22;16.87;;;8.27;;
20287;SDS011;10303;51.960;8.372;2022-12-05T01:03:54;14.20;;;5.73;;
20287;SDS011;10303;51.960;8.372;2022-12-05T01:06:22;13.03;;;7.33;;
20287;SDS011;10303;51.960;8.372;2022-12-05T01:08:49;13.83;;;6.87;;
20287;SDS011;10303;51.960;8.372;2022-12-05T01:11:19;10.47;;;6.17;;
20287;SDS011;10303;51.960;8.372;2022-12-05T01:13:47;12.23;;;7.00;;
20287;SDS011;10303;51.960;8.372;2022-12-05T01:16:17;9.73;;;6.37;;
20287;SDS011;10303;51.960;8.372;2022-12-05T01:18:59;10.97;;;5.50;;
20287;SDS011;10303;51.960;8.372;2022-12-05T01:21:30;16.23;;;7.13;;
20287;SDS011;10303;51.960;8.372;2022-12-05T01:23:56;11.10;;;6.23;;
20287;SDS011;10303;51.960;8.372;2022-12-05T01:26:23;9.63;;;5.27;;
20287;SDS011;10303;51.960;8.372;2022-12-05T01:28:49;10.63;;;6.10;;
20287;SDS011;10303;51.960;8.372;2022-12-05T01:33:52;10.63;;;5.87;;
20287;SDS011;10303;51.960;8.372;2022-12-05T01:36:21;10.73;;;5.27;;
20287;SDS011;10303;51.960;8.372;2022-12-05T01:38:48;8.20;;;5.17;;
20287;SDS011;10303;51.960;8.372;2022-12-05T01:41:16;10.10;;;5.50;;
20287;SDS011;10303;51.960;8.372;2022-12-05T01:43:52;7.57;;;4.23;;
20287;SDS011;10303;51.960;8.372;2022-12-05T01:46:21;6.83;;;4.80;;
20287;SDS011;10303;51.960;8.372;2022-12-05T01:48:48;6.97;;;4.67;;
20287;SDS011;10303;51.960;8.372;2022-12-05T01:51:17;10.33;;;5.37;;
20287;SDS011;10303;51.960;8.372;2022-12-05T01:53:44;7.83;;;5.20;;
20287;SDS011;10303;51.960;8.372;2022-12-05T01:56:10;7.73;;;4.57;;
20287;SDS011;10303;51.960;8.372;2022-12-05T01:58:37;8.93;;;5.07;;
20287;SDS011;10303;51.960;8.372;2022-12-05T02:01:07;8.77;;;4.47;;
20287;SDS011;10303;51.960;8.372;2022-12-05T02:03:33;8.53;;;4.20;;
20287;SDS011;10303;51.960;8.372;2022-12-05T02:06:01;9.00;;;5.17;;
20287;SDS011;10303;51.960;8.372;2022-12-05T02:08:29;12.60;;;5.43;;
20287;SDS011;10303;51.960;8.372;2022-12-05T02:10:55;10.50;;;4.67;;
20287;SDS011;10303;51.960;8.372;2022-12-05T02:27:30;6.33;;;3.93;;
20287;SDS011;10303;51.960;8.372;2022-12-05T02:30:41;9.57;;;5.20;;
20287;SDS011;10303;51.960;8.372;2022-12-05T02:36:15;8.30;;;4.30;;
20287;SDS011;10303;51.960;8.372;2022-12-05T02:39:05;6.70;;;4.03;;
20287;SDS011;10303;51.960;8.372;2022-12-05T02:44:29;7.07;;;4.10;;
20287;SDS011;10303;51.960;8.372;2022-12-05T02:47:14;5.07;;;3.70;;
20287;SDS011;10303;51.960;8.372;2022-12-05T02:49:47;6.23;;;4.20;;
20287;SDS011;10303;51.960;8.372;2022-12-05T02:52:16;7.50;;;4.03;;
20287;SDS011;10303;51.960;8.372;2022-12-05T02:54:43;5.87;;;3.77;;
20287;SDS011;10303;51.960;8.372;2022-12-05T02:57:13;5.73;;;3.77;;
20287;SDS011;10303;51.960;8.372;2022-12-05T02:59:42;8.70;;;4.90;;
20287;SDS011;10303;51.960;8.372;2022-12-05T03:02:08;8.70;;;4.33;;
20287;SDS011;10303;51.960;8.372;2022-12-05T03:05:43;8.03;;;4.73;;
20287;SDS011;10303;51.960;8.372;2022-12-05T03:07:50;10.33;;;4.47;;
20287;SDS011;10303;51.960;8.372;2022-12-05T03:10:22;6.77;;;4.40;;
20287;SDS011;10303;51.960;8.372;2022-12-05T03:12:54;8.70;;;4.13;;
20287;SDS011;10303;51.960;8.372;2022-12-05T03:15:27;7.87;;;4.70;;
20287;SDS011;10303;51.960;8.372;2022-12-05T03:18:25;8.53;;;4.03;;
20287;SDS011;10303;51.960;8.372;2022-12-05T03:20:58;9.00;;;4.37;;
20287;SDS011;10303;51.960;8.372;2022-12-05T03:23:42;4.23;;;3.20;;
20287;SDS011;10303;51.960;8.372;2022-12-05T03:26:21;7.53;;;4.13;;
20287;SDS011;10303;51.960;8.372;2022-12-05T03:46:21;6.83;;;3.83;;
20287;SDS011;10303;51.960;8.372;2022-12-05T03:51:51;5.53;;;4.07;;
20287;SDS011;10303;51.960;8.372;2022-12-05T03:54:26;2.87;;;2.43;;
20287;SDS011;10303;51.960;8.372;2022-12-05T03:57:05;6.03;;;3.67;;
20287;SDS011;10303;51.960;8.372;2022-12-05T03:59:51;4.27;;;3.37;;
20287;SDS011;10303;51.960;8.372;2022-12-05T04:02:34;3.27;;;2.47;;
20287;SDS011;10303;51.960;8.372;2022-12-05T04:05:37;4.23;;;3.03;;
20287;SDS011;10303;51.960;8.372;2022-12-05T04:11:03;4.27;;;3.23;;
20287;SDS011;10303;51.960;8.372;2022-12-05T04:13:40;7.10;;;3.70;;
20287;SDS011;10303;51.960;8.372;2022-12-05T04:16:24;5.73;;;4.33;;
20287;SDS011;10303;51.960;8.372;2022-12-05T04:19:16;6.90;;;3.30;;
20287;SDS011;10303;51.960;8.372;2022-12-05T04:22:16;7.43;;;2.93;;
20287;SDS011;10303;51.960;8.372;2022-12-05T04:24:44;3.73;;;3.00;;
20287;SDS011;10303;51.960;8.372;2022-12-05T04:27:39;7.33;;;3.97;;
20287;SDS011;10303;51.960;8.372;2022-12-05T04:30:19;6.57;;;3.90;;
20287;SDS011;10303;51.960;8.372;2022-12-05T04:42:04;4.37;;;3.13;;
20287;SDS011;10303;51.960;8.372;2022-12-05T04:44:41;4.30;;;3.13;;
20287;SDS011;10303;51.960;8.372;2022-12-05T04:47:17;7.27;;;3.90;;
20287;SDS011;10303;51.960;8.372;2022-12-05T04:49:48;5.03;;;3.20;;
20287;SDS011;10303;51.960;8.372;2022-12-05T04:52:16;5.83;;;3.70;;
20287;SDS011;10303;51.960;8.372;2022-12-05T04:54:43;5.90;;;3.87;;
20287;SDS011;10303;51.960;8.372;2022-12-05T05:00:09;7.57;;;4.33;;
20287;SDS011;10303;51.960;8.372;2022-12-05T05:02:38;6.37;;;3.93;;
20287;SDS011;10303;51.960;8.372;2022-12-05T05:05:15;7.30;;;4.30;;
20287;SDS011;10303;51.960;8.372;2022-12-05T05:07:49;5.60;;;3.70;;
20287;SDS011;10303;51.960;8.372;2022-12-05T05:10:26;7.97;;;4.20;;
20287;SDS011;10303;51.960;8.372;2022-12-05T05:13:16;7.23;;;5.03;;
20287;SDS011;10303;51.960;8.372;2022-12-05T05:16:02;6.00;;;3.73;;
20287;SDS011;10303;51.960;8.372;2022-12-05T05:18:28;5.13;;;3.10;;
20287;SDS011;10303;51.960;8.372;2022-12-05T05:20:55;8.13;;;3.90;;
20287;SDS011;10303;51.960;8.372;2022-12-05T05:23:21;4.73;;;3.43;;
20287;SDS011;10303;51.960;8.372;2022-12-05T05:25:51;7.83;;;4.20;;
20287;SDS011;10303;51.960;8.372;2022-12-05T05:28:19;7.17;;;4.13;;
20287;SDS011;10303;51.960;8.372;2022-12-05T05:30:46;6.90;;;4.13;;
20287;SDS011;10303;51.960;8.372;2022-12-05T05:33:13;9.13;;;4.80;;
20287;SDS011;10303;51.960;8.372;2022-12-05T05:35:39;9.00;;;4.70;;
20287;SDS011;10303;51.960;8.372;2022-12-05T05:38:05;6.83;;;4.17;;
20287;SDS011;10303;51.960;8.372;2022-12-05T05:40:33;7.53;;;4.80;;
20287;SDS011;10303;51.960;8.372;2022-12-05T05:43:02;10.43;;;5.13;;
20287;SDS011;10303;51.960;8.372;2022-12-05T05:45:28;9.63;;;5.67;;
20287;SDS011;10303;51.960;8.372;2022-12-05T05:47:54;9.17;;;4.67;;
20287;SDS011;10303;51.960;8.372;2022-12-05T05:50:20;10.70;;;5.03;;
20287;SDS011;10303;51.960;8.372;2022-12-05T05:52:46;12.77;;;5.23;;
20287;SDS011;10303;51.960;8.372;2022-12-05T05:55:12;7.97;;;4.57;;
20287;SDS011;10303;51.960;8.372;2022-12-05T05:57:38;7.73;;;4.97;;
20287;SDS011;10303;51.960;8.372;2022-12-05T06:00:06;11.20;;;5.77;;
20287;SDS011;10303;51.960;8.372;2022-12-05T06:02:33;8.83;;;4.93;;
20287;SDS011;10303;51.960;8.372;2022-12-05T06:05:00;6.83;;;5.37;;
20287;SDS011;10303;51.960;8.372;2022-12-05T06:07:26;10.03;;;5.00;;
20287;SDS011;10303;51.960;8.372;2022-12-05T06:09:53;6.50;;;4.00;;
20287;SDS011;10303;51.960;8.372;2022-12-05T06:12:19;8.67;;;4.23;;
20287;SDS011;10303;51.960;8.372;2022-12-05T06:14:48;7.53;;;4.53;;
20287;SDS011;10303;51.960;8.372;2022-12-05T06:17:15;8.73;;;5.27;;
20287;SDS011;10303;51.960;8.372;2022-12-05T06:19:42;11.13;;;5.87;;
20287;SDS011;10303;51.960;8.372;2022-12-05T06:22:08;7.33;;;4.67;;
20287;SDS011;10303;51.960;8.372;2022-12-05T06:24:34;9.47;;;4.50;;
20287;SDS011;10303;51.960;8.372;2022-12-05T06:27:00;10.07;;;4.77;;
20287;SDS011;10303;51.960;8.372;2022-12-05T06:29:26;12.40;;;5.30;;
20287;SDS011;10303;51.960;8.372;2022-12-05T06:31:52;8.13;;;4.57;;
20287;SDS011;10303;51.960;8.372;2022-12-05T06:34:18;7.03;;;4.53;;
20287;SDS011;10303;51.960;8.372;2022-12-05T06:36:44;7.30;;;4.23;;
20287;SDS011;10303;51.960;8.372;2022-12-05T06:39:10;10.17;;;5.47;;
20287;SDS011;10303;51.960;8.372;2022-12-05T06:41:36;8.80;;;4.70;;
20287;SDS011;10303;51.960;8.372;2022-12-05T06:44:02;8.97;;;5.40;;
20287;SDS011;10303;51.960;8.372;2022-12-05T06:46:28;10.23;;;5.33;;
20287;SDS011;10303;51.960;8.372;2022-12-05T06:48:55;7.63;;;4.30;;
20287;SDS011;10303;51.960;8.372;2022-12-05T06:51:24;6.73;;;3.87;;
20287;SDS011;10303;51.960;8.372;2022-12-05T06:53:50;6.57;;;3.80;;
20287;SDS011;10303;51.960;8.372;2022-12-05T06:56:17;7.00;;;4.67;;
20287;SDS011;10303;51.960;8.372;2022-12-05T06:58:45;7.77;;;4.30;;
20287;SDS011;10303;51.960;8.372;2022-12-05T07:01:21;10.07;;;5.57;;
20287;SDS011;10303;51.960;8.372;2022-12-05T07:04:18;8.43;;;4.13;;
20287;SDS011;10303;51.960;8.372;2022-12-05T07:06:50;9.33;;;5.13;;
20287;SDS011;10303;51.960;8.372;2022-12-05T07:09:19;8.40;;;4.77;;
20287;SDS011;10303;51.960;8.372;2022-12-05T07:12:13;9.33;;;4.53;;
20287;SDS011;10303;51.960;8.372;2022-12-05T07:14:43;11.03;;;4.90;;
20287;SDS011;10303;51.960;8.372;2022-12-05T07:17:10;7.00;;;4.60;;
20287;SDS011;10303;51.960;8.372;2022-12-05T07:19:36;8.73;;;5.37;;
20287;SDS011;10303;51.960;8.372;2022-12-05T07:22:02;9.90;;;5.47;;
20287;SDS011;10303;51.960;8.372;2022-12-05T07:24:28;10.23;;;5.00;;
20287;SDS011;10303;51.960;8.372;2022-12-05T07:26:54;5.90;;;3.80;;
20287;SDS011;10303;51.960;8.372;2022-12-05T07:29:20;6.63;;;4.10;;
20287;SDS011;10303;51.960;8.372;2022-12-05T07:31:46;6.00;;;3.60;;
20287;SDS011;10303;51.960;8.372;2022-12-05T07:34:12;6.57;;;3.63;;
20287;SDS011;10303;51.960;8.372;2022-12-05T07:36:38;6.33;;;3.70;;
20287;SDS011;10303;51.960;8.372;2022-12-05T07:39:04;6.00;;;3.40;;
20287;SDS011;10303;51.960;8.372;2022-12-05T07:41:31;3.83;;;3.07;;
20287;SDS011;10303;51.960;8.372;2022-12-05T07:43:58;4.90;;;3.27;;
20287;SDS011;10303;51.960;8.372;2022-12-05T07:46:25;4.90;;;3.40;;
20287;SDS011;10303;51.960;8.372;2022-12-05T07:48:53;5.90;;;3.13;;
20287;SDS011;10303;51.960;8.372;2022-12-05T07:51:20;4.27;;;3.10;;
20287;SDS011;10303;51.960;8.372;2022-12-05T07:53:46;5.40;;;3.57;;
20287;SDS011;10303;51.960;8.372;2022-12-05T07:56:14;5.40;;;2.87;;
20287;SDS011;10303;51.960;8.372;2022-12-05T07:58:43;4.23;;;3.07;;
20287;SDS011;10303;51.960;8.372;2022-12-05T08:01:15;3.47;;;2.87;;
20287;SDS011;10303;51.960;8.372;2022-12-05T08:03:49;4.33;;;2.93;;
20287;SDS011;10303;51.960;8.372;2022-12-05T08:06:19;5.83;;;3.33;;
20287;SDS011;10303;51.960;8.372;2022-12-05T08:08:48;3.10;;;2.80;;
20287;SDS011;10303;51.960;8.372;2022-12-05T08:11:24;4.60;;;2.80;;
20287;SDS011;10303;51.960;8.372;2022-12-05T08:13:54;4.80;;;3.07;;
20287;SDS011;10303;51.960;8.372;2022-12-05T08:16:24;3.50;;;2.70;;
20287;SDS011;10303;51.960;8.372;2022-12-05T08:18:53;5.40;;;2.63;;
20287;SDS011;10303;51.960;8.372;2022-12-05T08:21:21;2.87;;;1.93;;
20287;SDS011;10303;51.960;8.372;2022-12-05T08:23:49;2.37;;;2.17;;
20287;SDS011;10303;51.960;8.372;2022-12-05T08:26:17;4.10;;;2.47;;
20287;SDS011;10303;51.960;8.372;2022-12-05T08:28:53;4.17;;;2.43;;
20287;SDS011;10303;51.960;8.372;2022-12-05T08:31:27;2.87;;;2.17;;
20287;SDS011;10303;51.960;8.372;2022-12-05T08:33:56;4.73;;;2.77;;
20287;SDS011;10303;51.960;8.372;2022-12-05T08:36:24;2.73;;;1.87;;
20287;SDS011;10303;51.960;8.372;2022-12-05T08:38:56;3.83;;;2.70;;
20287;SDS011;10303;51.960;8.372;2022-12-05T08:41:24;3.53;;;2.70;;
20287;SDS011;10303;51.960;8.372;2022-12-05T08:43:58;2.27;;;1.63;;
20287;SDS011;10303;51.960;8.372;2022-12-05T08:46:27;4.00;;;2.30;;
20287;SDS011;10303;51.960;8.372;2022-12-05T08:48:55;2.27;;;1.90;;
20287;SDS011;10303;51.960;8.372;2022-12-05T08:51:21;3.67;;;2.00;;
20287;SDS011;10303;51.960;8.372;2022-12-05T08:53:47;2.83;;;1.97;;
20287;SDS011;10303;51.960;8.372;2022-12-05T08:56:13;2.33;;;1.77;;
20287;SDS011;10303;51.960;8.372;2022-12-05T08:58:39;3.70;;;2.47;;
20287;SDS011;10303;51.960;8.372;2022-12-05T09:01:07;4.37;;;2.40;;
20287;SDS011;10303;51.960;8.372;2022-12-05T09:03:36;2.43;;;1.87;;
20287;SDS011;10303;51.960;8.372;2022-12-05T09:06:07;2.10;;;1.77;;
20287;SDS011;10303;51.960;8.372;2022-12-05T09:08:34;2.67;;;1.93;;
20287;SDS011;10303;51.960;8.372;2022-12-05T09:11:05;3.60;;;1.63;;
20287;SDS011;10303;51.960;8.372;2022-12-05T09:13:38;3.33;;;1.90;;
20287;SDS011;10303;51.960;8.372;2022-12-05T09:16:05;3.70;;;1.80;;
20287;SDS011;10303;51.960;8.372;2022-12-05T09:18:39;3.50;;;2.60;;
20287;SDS011;10303;51.960;8.372;2022-12-05T09:21:10;2.53;;;2.20;;
20287;SDS011;10303;51.960;8.372;2022-12-05T09:23:42;2.90;;;2.43;;
20287;SDS011;10303;51.960;8.372;2022-12-05T09:26:10;2.90;;;2.07;;
20287;SDS011;10303;51.960;8.372;2022-12-05T09:28:39;2.50;;;2.30;;
20287;SDS011;10303;51.960;8.372;2022-12-05T09:31:11;2.33;;;1.93;;
20287;SDS011;10303;51.960;8.372;2022-12-05T09:33:41;2.30;;;2.10;;
20287;SDS011;10303;51.960;8.372;2022-12-05T09:36:16;2.70;;;2.00;;
20287;SDS011;10303;51.960;8.372;2022-12-05T09:38:45;2.40;;;2.13;;
20287;SDS011;10303;51.960;8.372;2022-12-05T09:44:52;1.60;;;1.30;;
20287;SDS011;10303;51.960;8.372;2022-12-05T09:47:48;1.40;;;1.27;;
20287;SDS011;10303;51.960;8.372;2022-12-05T09:50:34;1.30;;;1.20;;
20287;SDS011;10303;51.960;8.372;2022-12-05T09:53:29;2.67;;;1.70;;
20287;SDS011;10303;51.960;8.372;2022-12-05T09:58:38;1.87;;;1.50;;
20287;SDS011;10303;51.960;8.372;2022-12-05T10:01:20;2.37;;;1.70;;
20287;SDS011;10303;51.960;8.372;2022-12-05T10:13:13;7.23;;;3.17;;
20287;SDS011;10303;51.960;8.372;2022-12-05T10:16:02;5.50;;;2.80;;
20287;SDS011;10303;51.960;8.372;2022-12-05T10:19:15;4.47;;;1.73;;
20287;SDS011;10303;51.960;8.372;2022-12-05T10:24:52;4.33;;;2.17;;
20287;SDS011;10303;51.960;8.372;2022-12-05T10:27:32;2.60;;;2.23;;
20287;SDS011;10303;51.960;8.372;2022-12-05T10:30:06;3.63;;;2.03;;
20287;SDS011;10303;51.960;8.372;2022-12-05T10:35:34;2.50;;;1.83;;
20287;SDS011;10303;51.960;8.372;2022-12-05T10:38:05;2.40;;;1.70;;
20287;SDS011;10303;51.960;8.372;2022-12-05T10:40:50;2.53;;;1.87;;
20287;SDS011;10303;51.960;8.372;2022-12-05T10:43:24;1.30;;;1.20;;
20287;SDS011;10303;51.960;8.372;2022-12-05T10:45:55;3.97;;;1.77;;
20287;SDS011;10303;51.960;8.372;2022-12-05T10:48:23;3.27;;;1.83;;
20287;SDS011;10303;51.960;8.372;2022-12-05T10:50:54;2.83;;;1.90;;
20287;SDS011;10303;51.960;8.372;2022-12-05T10:53:37;2.13;;;1.80;;
20287;SDS011;10303;51.960;8.372;2022-12-05T10:59:14;2.40;;;2.20;;
20287;SDS011;10303;51.960;8.372;2022-12-05T11:01:45;2.13;;;1.93;;
20287;SDS011;10303;51.960;8.372;2022-12-05T11:04:19;2.27;;;1.80;;
20287;SDS011;10303;51.960;8.372;2022-12-05T11:07:04;2.53;;;1.93;;
20287;SDS011;10303;51.960;8.372;2022-12-05T11:09:36;2.27;;;1.53;;
20287;SDS011;10303;51.960;8.372;2022-12-05T11:12:22;2.43;;;1.80;;
20287;SDS011;10303;51.960;8.372;2022-12-05T11:15:17;1.70;;;1.43;;
20287;SDS011;10303;51.960;8.372;2022-12-05T11:17:50;2.30;;;1.60;;
20287;SDS011;10303;51.960;8.372;2022-12-05T11:22:45;2.00;;;1.33;;
20287;SDS011;10303;51.960;8.372;2022-12-05T11:25:22;2.60;;;1.83;;
20287;SDS011;10303;51.960;8.372;2022-12-05T11:36:49;2.70;;;1.90;;
20287;SDS011;10303;51.960;8.372;2022-12-05T11:39:25;1.43;;;1.33;;
20287;SDS011;10303;51.960;8.372;2022-12-05T11:42:12;2.23;;;1.87;;
20287;SDS011;10303;51.960;8.372;2022-12-05T11:45:37;1.47;;;1.33;;
20287;SDS011;10303;51.960;8.372;2022-12-05T11:52:08;2.17;;;1.73;;
20287;SDS011;10303;51.960;8.372;2022-12-05T11:55:37;2.60;;;1.57;;
20287;SDS011;10303;51.960;8.372;2022-12-05T11:59:31;6.07;;;2.77;;
20287;SDS011;10303;51.960;8.372;2022-12-05T12:41:13;1.80;;;1.70;;
20287;SDS011;10303;51.960;8.372;2022-12-05T12:44:13;1.57;;;1.47;;
20287;SDS011;10303;51.960;8.372;2022-12-05T12:50:33;2.10;;;1.67;;
20287;SDS011;10303;51.960;8.372;2022-12-05T12:53:09;3.07;;;2.00;;
20287;SDS011;10303;51.960;8.372;2022-12-05T12:59:34;2.20;;;1.77;;
20287;SDS011;10303;51.960;8.372;2022-12-05T13:02:32;2.47;;;1.60;;
20287;SDS011;10303;51.960;8.372;2022-12-05T13:08:23;1.93;;;1.73;;
20287;SDS011;10303;51.960;8.372;2022-12-05T13:10:57;1.87;;;1.67;;
20287;SDS011;10303;51.960;8.372;2022-12-05T13:13:29;1.67;;;1.57;;
20287;SDS011;10303;51.960;8.372;2022-12-05T13:16:06;3.60;;;2.00;;
20287;SDS011;10303;51.960;8.372;2022-12-05T13:49:18;2.87;;;2.10;;
20287;SDS011;10303;51.960;8.372;2022-12-05T14:40:45;2.30;;;2.10;;
20287;SDS011;10303;51.960;8.372;2022-12-05T14:43:17;2.17;;;2.00;;
20287;SDS011;10303;51.960;8.372;2022-12-05T14:46:00;2.63;;;2.03;;
20287;SDS011;10303;51.960;8.372;2022-12-05T14:48:39;2.03;;;1.83;;
20287;SDS011;10303;51.960;8.372;2022-12-05T14:54:15;3.20;;;2.47;;
20287;SDS011;10303;51.960;8.372;2022-12-05T14:56:43;3.10;;;1.97;;
20287;SDS011;10303;51.960;8.372;2022-12-05T15:02:10;4.00;;;2.40;;
20287;SDS011;10303;51.960;8.372;2022-12-05T15:05:21;2.80;;;2.43;;
20287;SDS011;10303;51.960;8.372;2022-12-05T15:07:52;2.77;;;2.20;;
20287;SDS011;10303;51.960;8.372;2022-12-05T15:10:24;2.97;;;2.10;;
20287;SDS011;10303;51.960;8.372;2022-12-05T15:13:18;2.33;;;2.13;;
20287;SDS011;10303;51.960;8.372;2022-12-05T15:16:34;3.13;;;2.63;;
20287;SDS011;10303;51.960;8.372;2022-12-05T15:18:48;3.27;;;2.33;;
20287;SDS011;10303;51.960;8.372;2022-12-05T15:21:21;4.37;;;3.50;;
20287;SDS011;10303;51.960;8.372;2022-12-05T15:24:02;4.63;;;3.50;;
20287;SDS011;10303;51.960;8.372;2022-12-05T15:26:37;4.20;;;2.93;;
20287;SDS011;10303;51.960;8.372;2022-12-05T15:31:48;3.70;;;2.90;;
20287;SDS011;10303;51.960;8.372;2022-12-05T15:37:45;3.53;;;2.93;;
20287;SDS011;10303;51.960;8.372;2022-12-05T15:40:24;5.40;;;3.03;;
20287;SDS011;10303;51.960;8.372;2022-12-05T15:43:01;3.73;;;3.20;;
20287;SDS011;10303;51.960;8.372;2022-12-05T15:48:58;2.93;;;2.63;;
20287;SDS011;10303;51.960;8.372;2022-12-05T15:51:41;5.60;;;3.57;;
20287;SDS011;10303;51.960;8.372;2022-12-05T15:54:16;6.37;;;3.70;;
20287;SDS011;10303;51.960;8.372;2022-12-05T15:56:52;2.97;;;2.73;;
20287;SDS011;10303;51.960;8.372;2022-12-05T15:59:39;2.93;;;2.40;;
20287;SDS011;10303;51.960;8.372;2022-12-05T16:05:44;3.53;;;2.57;;
20287;SDS011;10303;51.960;8.372;2022-12-05T16:08:43;4.13;;;3.20;;
20287;SDS011;10303;51.960;8.372;2022-12-05T16:11:14;3.70;;;2.63;;
20287;SDS011;10303;51.960;8.372;2022-12-05T16:13:46;2.63;;;2.43;;
20287;SDS011;10303;51.960;8.372;2022-12-05T16:16:45;3.53;;;2.47;;
20287;SDS011;10303;51.960;8.372;2022-12-05T16:19:20;2.40;;;2.20;;
20287;SDS011;10303;51.960;8.372;2022-12-05T16:22:22;2.60;;;1.93;;
20287;SDS011;10303;51.960;8.372;2022-12-05T16:25:25;3.30;;;2.20;;
20287;SDS011;10303;51.960;8.372;2022-12-05T16:42:25;2.20;;;2.00;;
20287;SDS011;10303;51.960;8.372;2022-12-05T16:45:42;4.07;;;3.20;;
20287;SDS011;10303;51.960;8.372;2022-12-05T16:48:36;3.00;;;1.90;;
20287;SDS011;10303;51.960;8.372;2022-12-05T16:51:20;2.83;;;2.33;;
20287;SDS011;10303;51.960;8.372;2022-12-05T16:54:22;2.57;;;2.27;;
20287;SDS011;10303;51.960;8.372;2022-12-05T16:56:51;2.67;;;2.33;;
20287;SDS011;10303;51.960;8.372;2022-12-05T16:59:23;2.53;;;2.10;;
20287;SDS011;10303;51.960;8.372;2022-12-05T17:02:00;2.60;;;2.30;;
20287;SDS011;10303;51.960;8.372;2022-12-05T17:04:31;2.43;;;2.23;;
20287;SDS011;10303;51.960;8.372;2022-12-05T17:06:57;3.47;;;2.27;;
20287;SDS011;10303;51.960;8.372;2022-12-05T17:09:24;2.87;;;2.60;;
20287;SDS011;10303;51.960;8.372;2022-12-05T17:11:52;3.90;;;2.90;;
20287;SDS011;10303;51.960;8.372;2022-12-05T17:14:32;5.73;;;3.80;;
20287;SDS011;10303;51.960;8.372;2022-12-05T17:16:58;3.97;;;2.97;;
20287;SDS011;10303;51.960;8.372;2022-12-05T17:19:24;3.80;;;2.87;;
20287;SDS011;10303;51.960;8.372;2022-12-05T17:21:57;2.87;;;2.37;;
20287;SDS011;10303;51.960;8.372;2022-12-05T17:24:24;2.60;;;2.40;;
20287;SDS011;10303;51.960;8.372;2022-12-05T17:26:52;2.60;;;2.23;;
20287;SDS011;10303;51.960;8.372;2022-12-05T17:29:18;4.00;;;2.67;;
20287;SDS011;10303;51.960;8.372;2022-12-05T17:31:46;2.60;;;2.40;;
20287;SDS011;10303;51.960;8.372;2022-12-05T17:34:13;3.30;;;2.43;;
20287;SDS011;10303;51.960;8.372;2022-12-05T17:36:44;3.13;;;2.17;;
20287;SDS011;10303;51.960;8.372;2022-12-05T17:39:11;4.47;;;3.67;;
20287;SDS011;10303;51.960;8.372;2022-12-05T17:41:37;3.63;;;2.70;;
20287;SDS011;10303;51.960;8.372;2022-12-05T17:44:04;5.13;;;4.50;;
20287;SDS011;10303;51.960;8.372;2022-12-05T17:46:31;6.13;;;4.20;;
20287;SDS011;10303;51.960;8.372;2022-12-05T17:48:57;3.83;;;3.53;;
20287;SDS011;10303;51.960;8.372;2022-12-05T17:51:24;4.43;;;3.13;;
20287;SDS011;10303;51.960;8.372;2022-12-05T17:53:50;3.80;;;3.30;;
20287;SDS011;10303;51.960;8.372;2022-12-05T17:56:17;4.53;;;2.77;;
20287;SDS011;10303;51.960;8.372;2022-12-05T17:58:43;3.70;;;2.43;;
20287;SDS011;10303;51.960;8.372;2022-12-05T18:01:12;2.97;;;2.40;;
20287;SDS011;10303;51.960;8.372;2022-12-05T18:03:41;3.00;;;2.60;;
20287;SDS011;10303;51.960;8.372;2022-12-05T18:06:08;2.97;;;2.67;;
20287;SDS011;10303;51.960;8.372;2022-12-05T18:08:34;4.27;;;3.17;;
20287;SDS011;10303;51.960;8.372;2022-12-05T18:11:04;3.67;;;2.83;;
20287;SDS011;10303;51.960;8.372;2022-12-05T18:13:30;4.40;;;3.37;;
20287;SDS011;10303;51.960;8.372;2022-12-05T18:15:57;5.17;;;4.50;;
20287;SDS011;10303;51.960;8.372;2022-12-05T18:18:23;7.10;;;5.40;;
20287;SDS011;10303;51.960;8.372;2022-12-05T18:20:52;8.50;;;4.70;;
20287;SDS011;10303;51.960;8.372;2022-12-05T18:23:18;6.43;;;4.30;;
20287;SDS011;10303;51.960;8.372;2022-12-05T18:25:44;5.30;;;3.93;;
20287;SDS011;10303;51.960;8.372;2022-12-05T18:28:21;5.73;;;3.60;;
20287;SDS011;10303;51.960;8.372;2022-12-05T18:30:47;5.37;;;2.70;;
20287;SDS011;10303;51.960;8.372;2022-12-05T18:33:13;6.07;;;3.27;;
20287;SDS011;10303;51.960;8.372;2022-12-05T18:35:39;3.83;;;3.30;;
20287;SDS011;10303;51.960;8.372;2022-12-05T18:38:09;4.70;;;3.47;;
20287;SDS011;10303;51.960;8.372;2022-12-05T18:40:36;5.27;;;3.00;;
20287;SDS011;10303;51.960;8.372;2022-12-05T18:43:03;3.63;;;2.67;;
20287;SDS011;10303;51.960;8.372;2022-12-05T18:45:29;5.33;;;3.90;;
20287;SDS011;10303;51.960;8.372;2022-12-05T18:47:55;5.90;;;3.67;;
20287;SDS011;10303;51.960;8.372;2022-12-05T18:50:21;4.10;;;3.37;;
20287;SDS011;10303;51.960;8.372;2022-12-05T18:52:49;5.57;;;3.47;;
20287;SDS011;10303;51.960;8.372;2022-12-05T18:55:15;6.00;;;4.27;;
20287;SDS011;10303;51.960;8.372;2022-12-05T18:57:41;5.80;;;3.77;;
20287;SDS011;10303;51.960;8.372;2022-12-05T19:00:08;6.10;;;3.73;;
20287;SDS011;10303;51.960;8.372;2022-12-05T19:02:35;3.27;;;2.97;;
20287;SDS011;10303;51.960;8.372;2022-12-05T19:05:01;3.63;;;2.73;;
20287;SDS011;10303;51.960;8.372;2022-12-05T19:07:27;4.30;;;2.97;;
20287;SDS011;10303;51.960;8.372;2022-12-05T19:09:53;8.30;;;4.60;;
20287;SDS011;10303;51.960;8.372;2022-12-05T19:12:19;8.20;;;4.53;;
20287;SDS011;10303;51.960;8.372;2022-12-05T19:14:46;8.27;;;5.63;;
20287;SDS011;10303;51.960;8.372;2022-12-05T19:17:12;8.90;;;5.40;;
20287;SDS011;10303;51.960;8.372;2022-12-05T19:19:38;6.60;;;4.60;;
20287;SDS011;10303;51.960;8.372;2022-12-05T19:22:04;9.67;;;5.63;;
20287;SDS011;10303;51.960;8.372;2022-12-05T19:24:30;12.73;;;6.00;;
20287;SDS011;10303;51.960;8.372;2022-12-05T19:26:56;6.37;;;4.27;;
20287;SDS011;10303;51.960;8.372;2022-12-05T19:29:22;4.30;;;3.10;;
20287;SDS011;10303;51.960;8.372;2022-12-05T19:31:48;4.43;;;3.13;;
20287;SDS011;10303;51.960;8.372;2022-12-05T19:34:14;3.67;;;3.00;;
20287;SDS011;10303;51.960;8.372;2022-12-05T19:36:42;4.20;;;2.90;;
20287;SDS011;10303;51.960;8.372;2022-12-05T19:39:11;5.70;;;3.47;;
20287;SDS011;10303;51.960;8.372;2022-12-05T19:41:40;3.20;;;2.83;;